sensor_id;sensor_type;location;lat;lon;timestamp;pressure;altitude;pressure_sealevel;temperature;humidity
19777;BME280;10047;42.490;26.012;2023-02-14T00:01:45;101208.72;;;0.23;100.00
19777;BME280;10047;42.490;26.012;2023-02-14T00:04:11;101166.78;;;-0.56;100.00
19777;BME280;10047;42.490;26.012;2023-02-14T00:06:37;101216.59;;;-0.14;100.00
19777;BME280;10047;42.490;26.012;2023-02-14T00:09:04;101203.59;;;-0.29;100.00
19777;BME280;10047;42.490;26.012;2023-02-14T00:11:29;101221.03;;;-0.07;100.00
19777;BME280;10047;42.490;26.012;2023-02-14T00:13:56;101213.97;;;-0.18;100.00
19777;BME280;10047;42.490;26.012;2023-02-14T00:16:40;101200.97;;;-0.32;100.00
19777;BME280;10047;42.490;26.012;2023-02-14T00:19:05;101174.22;;;-0.36;100.00
19777;BME280;10047;42.490;26.012;2023-02-14T00:21:33;101174.97;;;-0.82;100.00
19777;BME280;10047;42.490;26.012;2023-02-14T00:24:03;101156.06;;;-0.77;100.00
19777;BME280;10047;42.490;26.012;2023-02-14T00:26:29;101197.50;;;-0.59;100.00
19777;BME280;10047;42.490;26.012;2023-02-14T00:28:55;101144.72;;;-0.46;100.00
19777;BME280;10047;42.490;26.012;2023-02-14T00:31:20;101112.72;;;-0.79;100.00
19777;BME280;10047;42.490;26.012;2023-02-14T00:33:46;101200.25;;;-0.97;100.00
19777;BME280;10047;42.490;26.012;2023-02-14T00:36:11;101161.09;;;-0.76;100.00
19777;BME280;10047;42.490;26.012;2023-02-14T00:38:37;101160.06;;;-0.81;100.00
19777;BME280;10047;42.490;26.012;2023-02-14T00:41:02;101212.59;;;-0.78;100.00
19777;BME280;10047;42.490;26.012;2023-02-14T00:43:29;101184.47;;;-0.74;100.00
19777;BME280;10047;42.490;26.012;2023-02-14T00:45:54;101179.06;;;-0.62;100.00
19777;BME280;10047;42.490;26.012;2023-02-14T00:48:20;101130.94;;;-0.82;100.00
19777;BME280;10047;42.490;26.012;2023-02-14T00:50:45;101130.16;;;-1.03;100.00
19777;BME280;10047;42.490;26.012;2023-02-14T00:53:11;101168.22;;;-0.63;100.00
19777;BME280;10047;42.490;26.012;2023-02-14T00:55:37;101176.34;;;-0.68;100.00
19777;BME280;10047;42.490;26.012;2023-02-14T00:58:02;101100.72;;;-0.66;100.00
19777;BME280;10047;42.490;26.012;2023-02-14T01:00:28;101163.50;;;-0.32;100.00
19777;BME280;10047;42.490;26.012;2023-02-14T01:02:54;101113.28;;;-0.63;100.00
19777;BME280;10047;42.490;26.012;2023-02-14T01:05:24;101149.81;;;-0.43;100.00
19777;BME280;10047;42.490;26.012;2023-02-14T01:07:49;101168.69;;;-0.73;100.00
19777;BME280;10047;42.490;26.012;2023-02-14T01:10:15;101166.09;;;-0.76;100.00
19777;BME280;10047;42.490;26.012;2023-02-14T01:12:40;101182.81;;;-1.18;100.00
19777;BME280;10047;42.490;26.012;2023-02-14T01:15:06;101169.44;;;-0.98;100.00
19777;BME280;10047;42.490;26.012;2023-02-14T01:17:39;101061.78;;;-1.52;100.00
19777;BME280;10047;42.490;26.012;2023-02-14T01:20:06;101144.44;;;-0.99;100.00
19777;BME280;10047;42.490;26.012;2023-02-14T01:22:37;101144.25;;;-0.81;100.00
19777;BME280;10047;42.490;26.012;2023-02-14T01:25:03;101082.81;;;-1.02;100.00
19777;BME280;10047;42.490;26.012;2023-02-14T01:27:40;101138.44;;;-0.58;100.00
19777;BME280;10047;42.490;26.012;2023-02-14T01:30:07;101125.25;;;-0.54;100.00
19777;BME280;10047;42.490;26.012;2023-02-14T01:32:32;101158.41;;;-1.03;100.00
19777;BME280;10047;42.490;26.012;2023-02-14T01:34:58;101147.53;;;-0.82;100.00
19777;BME280;10047;42.490;26.012;2023-02-14T01:37:25;101101.22;;;-1.20;100.00
19777;BME280;10047;42.490;26.012;2023-02-14T01:39:50;101132.91;;;-1.18;100.00
19777;BME280;10047;42.490;26.012;2023-02-14T01:42:16;101117.25;;;-0.46;100.00
19777;BME280;10047;42.490;26.012;2023-02-14T01:47:29;101120.09;;;-1.05;100.00
19777;BME280;10047;42.490;26.012;2023-02-14T01:50:11;101073.78;;;-1.20;100.00
19777;BME280;10047;42.490;26.012;2023-02-14T01:52:46;101100.72;;;-0.66;100.00
19777;BME280;10047;42.490;26.012;2023-02-14T01:55:17;101086.94;;;-1.24;100.00
19777;BME280;10047;42.490;26.012;2023-02-14T01:57:49;101087.06;;;-1.21;100.00
19777;BME280;10047;42.490;26.012;2023-02-14T02:00:15;101114.56;;;-0.98;100.00
19777;BME280;10047;42.490;26.012;2023-02-14T02:03:00;101050.22;;;-1.50;100.00
19777;BME280;10047;42.490;26.012;2023-02-14T02:05:27;101037.88;;;-1.25;100.00
19777;BME280;10047;42.490;26.012;2023-02-14T02:07:55;101038.56;;;-1.29;100.00
19777;BME280;10047;42.490;26.012;2023-02-14T02:10:22;101105.13;;;-0.82;100.00
19777;BME280;10047;42.490;26.012;2023-02-14T02:12:49;100998.50;;;-1.10;100.00
19777;BME280;10047;42.490;26.012;2023-02-14T02:15:15;100991.75;;;-1.36;100.00
19777;BME280;10047;42.490;26.012;2023-02-14T02:17:59;101088.47;;;-0.83;100.00
19777;BME280;10047;42.490;26.012;2023-02-14T02:36:47;101067.28;;;-0.93;100.00
19777;BME280;10047;42.490;26.012;2023-02-14T02:45:12;101059.50;;;-1.02;100.00
19777;BME280;10047;42.490;26.012;2023-02-14T02:48:14;101055.63;;;-0.94;100.00
19777;BME280;10047;42.490;26.012;2023-02-14T02:50:45;101049.09;;;-1.36;100.00
19777;BME280;10047;42.490;26.012;2023-02-14T02:53:50;101055.16;;;-1.30;100.00
19777;BME280;10047;42.490;26.012;2023-02-14T02:56:31;101030.19;;;-1.08;100.00
19777;BME280;10047;42.490;26.012;2023-02-14T03:01:45;101025.00;;;-1.14;100.00
19777;BME280;10047;42.490;26.012;2023-02-14T03:04:15;101033.47;;;-1.09;100.00
19777;BME280;10047;42.490;26.012;2023-02-14T03:06:59;100966.47;;;-1.23;100.00
19777;BME280;10047;42.490;26.012;2023-02-14T03:23:26;100975.16;;;-1.58;100.00
19777;BME280;10047;42.490;26.012;2023-02-14T03:29:02;100985.28;;;-1.31;100.00
19777;BME280;10047;42.490;26.012;2023-02-14T03:31:42;100920.56;;;-1.52;100.00
19777;BME280;10047;42.490;26.012;2023-02-14T03:36:54;100979.38;;;-1.57;100.00
19777;BME280;10047;42.490;26.012;2023-02-14T03:39:51;100884.88;;;-2.19;100.00
19777;BME280;10047;42.490;26.012;2023-02-14T03:42:24;100953.34;;;-1.41;100.00
19777;BME280;10047;42.490;26.012;2023-02-14T03:44:52;100849.56;;;-1.87;100.00
19777;BME280;10047;42.490;26.012;2023-02-14T03:47:22;100869.53;;;-1.85;100.00
19777;BME280;10047;42.490;26.012;2023-02-14T03:50:10;100959.00;;;-1.23;100.00
19777;BME280;10047;42.490;26.012;2023-02-14T03:52:37;100957.91;;;-1.53;100.00
19777;BME280;10047;42.490;26.012;2023-02-14T03:55:05;100895.31;;;-1.85;100.00
19777;BME280;10047;42.490;26.012;2023-02-14T03:57:58;100958.19;;;-1.68;100.00
19777;BME280;10047;42.490;26.012;2023-02-14T04:00:26;100900.34;;;-2.05;100.00
19777;BME280;10047;42.490;26.012;2023-02-14T04:02:56;100876.28;;;-1.83;100.00
19777;BME280;10047;42.490;26.012;2023-02-14T04:05:26;100882.66;;;-1.89;100.00
19777;BME280;10047;42.490;26.012;2023-02-14T04:07:55;100915.97;;;-1.87;100.00
19777;BME280;10047;42.490;26.012;2023-02-14T04:10:21;100853.06;;;-2.04;100.00
19777;BME280;10047;42.490;26.012;2023-02-14T04:12:49;100862.75;;;-1.89;100.00
19777;BME280;10047;42.490;26.012;2023-02-14T04:15:15;100838.19;;;-2.02;100.00
19777;BME280;10047;42.490;26.012;2023-02-14T04:17:41;100846.22;;;-2.09;100.00
19777;BME280;10047;42.490;26.012;2023-02-14T04:20:26;100829.06;;;-2.24;100.00
19777;BME280;10047;42.490;26.012;2023-02-14T04:22:51;100876.53;;;-1.51;100.00
19777;BME280;10047;42.490;26.012;2023-02-14T04:25:17;100899.13;;;-1.70;100.00
19777;BME280;10047;42.490;26.012;2023-02-14T04:27:43;100888.41;;;-1.44;100.00
19777;BME280;10047;42.490;26.012;2023-02-14T04:30:09;100873.31;;;-1.49;100.00
19777;BME280;10047;42.490;26.012;2023-02-14T04:32:37;100850.59;;;-0.82;100.00
19777;BME280;10047;42.490;26.012;2023-02-14T04:35:03;100858.13;;;-1.06;100.00
19777;BME280;10047;42.490;26.012;2023-02-14T04:37:29;100847.03;;;-1.16;100.00
19777;BME280;10047;42.490;26.012;2023-02-14T04:39:54;100858.06;;;-1.56;100.00
19777;BME280;10047;42.490;26.012;2023-02-14T04:42:20;100821.47;;;-1.59;100.00
19777;BME280;10047;42.490;26.012;2023-02-14T04:44:45;100879.56;;;-1.36;100.00
19777;BME280;10047;42.490;26.012;2023-02-14T04:47:11;100873.66;;;-1.62;100.00
19777;BME280;10047;42.490;26.012;2023-02-14T04:49:36;100821.16;;;-2.14;100.00
19777;BME280;10047;42.490;26.012;2023-02-14T04:52:02;100870.13;;;-1.68;100.00
19777;BME280;10047;42.490;26.012;2023-02-14T04:54:28;100807.38;;;-2.28;100.00
19777;BME280;10047;42.490;26.012;2023-02-14T04:56:53;100875.84;;;-2.17;100.00
19777;BME280;10047;42.490;26.012;2023-02-14T04:59:19;100865.50;;;-2.04;100.00
19777;BME280;10047;42.490;26.012;2023-02-14T05:01:52;100871.19;;;-2.08;100.00
19777;BME280;10047;42.490;26.012;2023-02-14T05:04:18;100782.31;;;-2.32;100.00
19777;BME280;10047;42.490;26.012;2023-02-14T05:06:43;100810.91;;;-1.99;100.00
19777;BME280;10047;42.490;26.012;2023-02-14T05:09:09;100866.31;;;-1.83;100.00
19777;BME280;10047;42.490;26.012;2023-02-14T05:11:35;100807.41;;;-2.04;100.00
19777;BME280;10047;42.490;26.012;2023-02-14T05:14:00;100873.78;;;-1.83;100.00
19777;BME280;10047;42.490;26.012;2023-02-14T05:16:25;100818.75;;;-2.12;100.00
19777;BME280;10047;42.490;26.012;2023-02-14T05:18:51;100880.94;;;-1.90;100.00
19777;BME280;10047;42.490;26.012;2023-02-14T05:21:16;100876.31;;;-1.81;100.00
19777;BME280;10047;42.490;26.012;2023-02-14T05:23:42;100878.84;;;-1.80;100.00
19777;BME280;10047;42.490;26.012;2023-02-14T05:26:07;100821.09;;;-2.15;100.00
19777;BME280;10047;42.490;26.012;2023-02-14T05:28:33;100830.56;;;-2.07;100.00
19777;BME280;10047;42.490;26.012;2023-02-14T05:31:06;100857.75;;;-1.89;100.00
19777;BME280;10047;42.490;26.012;2023-02-14T05:33:32;100898.91;;;-2.21;100.00
19777;BME280;10047;42.490;26.012;2023-02-14T05:35:58;100842.09;;;-2.09;100.00
19777;BME280;10047;42.490;26.012;2023-02-14T05:38:25;100830.88;;;-2.20;100.00
19777;BME280;10047;42.490;26.012;2023-02-14T05:40:51;100861.59;;;-1.75;100.00
19777;BME280;10047;42.490;26.012;2023-02-14T05:43:16;100872.97;;;-1.82;100.00
19777;BME280;10047;42.490;26.012;2023-02-14T05:45:41;100807.50;;;-2.01;100.00
19777;BME280;10047;42.490;26.012;2023-02-14T05:48:07;100808.84;;;-1.87;100.00
19777;BME280;10047;42.490;26.012;2023-02-14T05:50:32;100787.88;;;-1.92;100.00
19777;BME280;10047;42.490;26.012;2023-02-14T05:52:58;100850.91;;;0.11;100.00
19777;BME280;10047;42.490;26.012;2023-02-14T05:55:24;100812.06;;;0.87;100.00
19777;BME280;10047;42.490;26.012;2023-02-14T05:57:50;100903.31;;;2.06;100.00
19777;BME280;10047;42.490;26.012;2023-02-14T06:00:16;100893.94;;;2.39;100.00
19777;BME280;10047;42.490;26.012;2023-02-14T06:02:41;100984.53;;;2.94;100.00
19777;BME280;10047;42.490;26.012;2023-02-14T06:05:07;101017.13;;;2.51;100.00
19777;BME280;10047;42.490;26.012;2023-02-14T06:07:33;101041.94;;;3.66;100.00
19777;BME280;10047;42.490;26.012;2023-02-14T06:09:58;101073.50;;;3.98;100.00
19777;BME280;10047;42.490;26.012;2023-02-14T06:12:24;101054.66;;;4.27;100.00
19777;BME280;10047;42.490;26.012;2023-02-14T06:14:50;101146.91;;;4.25;100.00
19777;BME280;10047;42.490;26.012;2023-02-14T06:17:19;101145.44;;;4.96;100.00
19777;BME280;10047;42.490;26.012;2023-02-14T06:19:44;101126.16;;;3.89;100.00
19777;BME280;10047;42.490;26.012;2023-02-14T06:22:09;101175.78;;;5.03;100.00
19777;BME280;10047;42.490;26.012;2023-02-14T06:24:35;101100.78;;;4.26;100.00
19777;BME280;10047;42.490;26.012;2023-02-14T06:27:01;101184.53;;;5.29;100.00
19777;BME280;10047;42.490;26.012;2023-02-14T06:29:26;101248.81;;;3.21;100.00
19777;BME280;10047;42.490;26.012;2023-02-14T06:31:51;101238.63;;;3.54;100.00
19777;BME280;10047;42.490;26.012;2023-02-14T06:34:17;101211.31;;;5.21;100.00
19777;BME280;10047;42.490;26.012;2023-02-14T06:36:43;101157.16;;;4.92;100.00
19777;BME280;10047;42.490;26.012;2023-02-14T06:39:08;101201.66;;;4.93;100.00
19777;BME280;10047;42.490;26.012;2023-02-14T06:41:34;101164.91;;;5.06;100.00
19777;BME280;10047;42.490;26.012;2023-02-14T06:43:59;101221.00;;;4.94;100.00
19777;BME280;10047;42.490;26.012;2023-02-14T06:46:24;101168.91;;;3.90;100.00
19777;BME280;10047;42.490;26.012;2023-02-14T06:48:50;101192.97;;;2.60;100.00
19777;BME280;10047;42.490;26.012;2023-02-14T06:51:15;101153.00;;;2.67;100.00
19777;BME280;10047;42.490;26.012;2023-02-14T06:53:41;101168.94;;;2.70;100.00
19777;BME280;10047;42.490;26.012;2023-02-14T06:56:06;101158.84;;;2.67;100.00
19777;BME280;10047;42.490;26.012;2023-02-14T06:58:32;101083.31;;;2.56;100.00
19777;BME280;10047;42.490;26.012;2023-02-14T07:00:58;101066.25;;;2.79;100.00
19777;BME280;10047;42.490;26.012;2023-02-14T07:03:24;101052.56;;;3.06;100.00
19777;BME280;10047;42.490;26.012;2023-02-14T07:05:51;101114.16;;;3.31;100.00
19777;BME280;10047;42.490;26.012;2023-02-14T07:08:16;101099.38;;;3.92;100.00
19777;BME280;10047;42.490;26.012;2023-02-14T07:10:42;101076.38;;;4.22;100.00
19777;BME280;10047;42.490;26.012;2023-02-14T07:13:07;101077.50;;;4.39;100.00
19777;BME280;10047;42.490;26.012;2023-02-14T07:15:33;101094.41;;;3.94;100.00
19777;BME280;10047;42.490;26.012;2023-02-14T07:17:58;101081.09;;;4.58;100.00
19777;BME280;10047;42.490;26.012;2023-02-14T07:20:24;101085.81;;;4.35;100.00
19777;BME280;10047;42.490;26.012;2023-02-14T07:22:50;101049.94;;;3.93;100.00
19777;BME280;10047;42.490;26.012;2023-02-14T07:25:15;101067.66;;;5.21;100.00
19777;BME280;10047;42.490;26.012;2023-02-14T07:27:41;101066.31;;;4.82;100.00
19777;BME280;10047;42.490;26.012;2023-02-14T07:30:09;101020.41;;;5.04;100.00
19777;BME280;10047;42.490;26.012;2023-02-14T07:32:36;101074.19;;;5.07;100.00
19777;BME280;10047;42.490;26.012;2023-02-14T07:35:02;101069.63;;;5.48;100.00
19777;BME280;10047;42.490;26.012;2023-02-14T07:37:28;101034.00;;;5.16;100.00
19777;BME280;10047;42.490;26.012;2023-02-14T07:39:53;101067.50;;;5.89;100.00
19777;BME280;10047;42.490;26.012;2023-02-14T07:42:18;101068.81;;;6.51;100.00
19777;BME280;10047;42.490;26.012;2023-02-14T07:44:44;101081.66;;;6.90;100.00
19777;BME280;10047;42.490;26.012;2023-02-14T07:47:10;101059.00;;;5.81;100.00
19777;BME280;10047;42.490;26.012;2023-02-14T07:49:36;101056.75;;;6.14;100.00
19777;BME280;10047;42.490;26.012;2023-02-14T07:52:02;101108.53;;;6.75;100.00
19777;BME280;10047;42.490;26.012;2023-02-14T07:54:28;101052.84;;;6.60;100.00
19777;BME280;10047;42.490;26.012;2023-02-14T07:56:53;101105.28;;;6.98;100.00
19777;BME280;10047;42.490;26.012;2023-02-14T07:59:19;101056.44;;;7.03;100.00
19777;BME280;10047;42.490;26.012;2023-02-14T08:01:44;101048.78;;;6.83;100.00
19777;BME280;10047;42.490;26.012;2023-02-14T08:04:10;101110.34;;;7.00;100.00
19777;BME280;10047;42.490;26.012;2023-02-14T08:06:38;101113.03;;;7.35;100.00
19777;BME280;10047;42.490;26.012;2023-02-14T08:09:04;101058.06;;;6.91;100.00
19777;BME280;10047;42.490;26.012;2023-02-14T08:11:29;101057.28;;;6.98;100.00
19777;BME280;10047;42.490;26.012;2023-02-14T08:14:13;101123.97;;;7.26;100.00
19777;BME280;10047;42.490;26.012;2023-02-14T08:16:38;101129.91;;;7.45;100.00
19777;BME280;10047;42.490;26.012;2023-02-14T08:19:04;101106.22;;;7.19;100.00
19777;BME280;10047;42.490;26.012;2023-02-14T08:21:29;101099.53;;;7.27;100.00
19777;BME280;10047;42.490;26.012;2023-02-14T08:23:55;101154.34;;;7.31;100.00
19777;BME280;10047;42.490;26.012;2023-02-14T08:26:21;101125.63;;;7.27;100.00
19777;BME280;10047;42.490;26.012;2023-02-14T08:28:46;101140.88;;;7.44;100.00
19777;BME280;10047;42.490;26.012;2023-02-14T08:31:12;101138.31;;;7.41;100.00
19777;BME280;10047;42.490;26.012;2023-02-14T08:33:37;101196.59;;;7.59;100.00
19777;BME280;10047;42.490;26.012;2023-02-14T08:36:03;101158.56;;;7.41;100.00
19777;BME280;10047;42.490;26.012;2023-02-14T08:38:28;101179.75;;;7.62;100.00
19777;BME280;10047;42.490;26.012;2023-02-14T08:40:59;101143.41;;;7.42;100.00
19777;BME280;10047;42.490;26.012;2023-02-14T08:43:24;101122.31;;;7.43;100.00
19777;BME280;10047;42.490;26.012;2023-02-14T08:45:53;101152.72;;;7.55;100.00
19777;BME280;10047;42.490;26.012;2023-02-14T08:48:18;101157.78;;;7.55;100.00
19777;BME280;10047;42.490;26.012;2023-02-14T08:50:44;101113.84;;;7.25;100.00
19777;BME280;10047;42.490;26.012;2023-02-14T08:53:11;101194.97;;;7.86;100.00
19777;BME280;10047;42.490;26.012;2023-02-14T08:55:37;101216.16;;;8.04;100.00
19777;BME280;10047;42.490;26.012;2023-02-14T08:58:04;101162.06;;;7.77;100.00
19777;BME280;10047;42.490;26.012;2023-02-14T09:00:31;101172.19;;;7.79;100.00
19777;BME280;10047;42.490;26.012;2023-02-14T09:02:56;101218.69;;;8.14;100.00
19777;BME280;10047;42.490;26.012;2023-02-14T09:05:22;101219.59;;;8.40;100.00
19777;BME280;10047;42.490;26.012;2023-02-14T09:07:48;101168.84;;;7.80;100.00
19777;BME280;10047;42.490;26.012;2023-02-14T09:10:14;101193.44;;;8.41;100.00
19777;BME280;10047;42.490;26.012;2023-02-14T09:12:40;101234.81;;;8.40;100.00
19777;BME280;10047;42.490;26.012;2023-02-14T09:15:08;101241.56;;;8.44;100.00
19777;BME280;10047;42.490;26.012;2023-02-14T09:17:35;101186.59;;;8.04;100.00
19777;BME280;10047;42.490;26.012;2023-02-14T09:20:00;101175.59;;;7.85;100.00
19777;BME280;10047;42.490;26.012;2023-02-14T09:22:26;101236.50;;;8.41;100.00
19777;BME280;10047;42.490;26.012;2023-02-14T09:24:51;101236.53;;;8.53;100.00
19777;BME280;10047;42.490;26.012;2023-02-14T09:27:17;101233.13;;;8.71;100.00
19777;BME280;10047;42.490;26.012;2023-02-14T09:29:42;101227.16;;;9.11;100.00
19777;BME280;10047;42.490;26.012;2023-02-14T09:32:08;101182.44;;;8.71;100.00
19777;BME280;10047;42.490;26.012;2023-02-14T09:34:34;101183.28;;;8.50;100.00
19777;BME280;10047;42.490;26.012;2023-02-14T09:36:59;101233.94;;;8.90;100.00
19777;BME280;10047;42.490;26.012;2023-02-14T09:39:25;101227.19;;;9.01;100.00
19777;BME280;10047;42.490;26.012;2023-02-14T09:42:01;101229.69;;;9.14;100.00
19777;BME280;10047;42.490;26.012;2023-02-14T09:47:15;101204.31;;;9.26;100.00
19777;BME280;10047;42.490;26.012;2023-02-14T09:49:44;101151.06;;;9.05;100.00
19777;BME280;10047;42.490;26.012;2023-02-14T09:52:15;101198.31;;;9.39;100.00
19777;BME280;10047;42.490;26.012;2023-02-14T09:54:43;101195.03;;;9.21;100.00
19777;BME280;10047;42.490;26.012;2023-02-14T09:59:47;101188.97;;;9.49;100.00
19777;BME280;10047;42.490;26.012;2023-02-14T10:07:34;101183.97;;;9.38;100.00
19777;BME280;10047;42.490;26.012;2023-02-14T10:10:36;101180.66;;;9.17;100.00
19777;BME280;10047;42.490;26.012;2023-02-14T10:13:19;101183.13;;;9.32;100.00
19777;BME280;10047;42.490;26.012;2023-02-14T10:15:53;101079.19;;;9.09;100.00
19777;BME280;10047;42.490;26.012;2023-02-14T10:18:27;101176.34;;;9.38;100.00
19777;BME280;10047;42.490;26.012;2023-02-14T10:20:57;101169.56;;;9.42;100.00
19777;BME280;10047;42.490;26.012;2023-02-14T10:23:37;101112.75;;;9.66;100.00
19777;BME280;10047;42.490;26.012;2023-02-14T10:26:17;101115.06;;;9.99;100.00
19777;BME280;10047;42.490;26.012;2023-02-14T10:28:48;101131.53;;;9.36;100.00
19777;BME280;10047;42.490;26.012;2023-02-14T10:34:45;101116.22;;;9.51;100.00
19777;BME280;10047;42.490;26.012;2023-02-14T10:48:27;101178.47;;;10.18;100.00
19777;BME280;10047;42.490;26.012;2023-02-14T10:51:07;101122.84;;;9.73;100.00
19777;BME280;10047;42.490;26.012;2023-02-14T10:53:59;101123.72;;;9.72;100.00
19777;BME280;10047;42.490;26.012;2023-02-14T10:56:35;101160.13;;;9.68;100.00
19777;BME280;10047;42.490;26.012;2023-02-14T11:00:19;101158.19;;;10.12;100.00
19777;BME280;10047;42.490;26.012;2023-02-14T11:02:33;101110.94;;;9.84;100.00
19777;BME280;10047;42.490;26.012;2023-02-14T11:04:59;101130.91;;;10.35;100.00
19777;BME280;10047;42.490;26.012;2023-02-14T11:07:26;101168.75;;;10.66;100.00
19777;BME280;10047;42.490;26.012;2023-02-14T11:09:53;101170.66;;;10.42;100.00
19777;BME280;10047;42.490;26.012;2023-02-14T11:12:37;101178.50;;;10.09;100.00
19777;BME280;10047;42.490;26.012;2023-02-14T11:17:46;101119.50;;;9.68;100.00
19777;BME280;10047;42.490;26.012;2023-02-14T11:22:49;101165.81;;;10.14;100.00
19777;BME280;10047;42.490;26.012;2023-02-14T11:27:47;101106.31;;;10.36;100.00
19777;BME280;10047;42.490;26.012;2023-02-14T11:30:29;101106.59;;;9.98;100.00
19777;BME280;10047;42.490;26.012;2023-02-14T11:32:55;101169.03;;;10.32;99.87
19777;BME280;10047;42.490;26.012;2023-02-14T11:35:24;101159.94;;;10.01;99.92
19777;BME280;10047;42.490;26.012;2023-02-14T11:37:55;101110.06;;;9.90;100.00
19777;BME280;10047;42.490;26.012;2023-02-14T11:40:29;101114.16;;;10.07;100.00
19777;BME280;10047;42.490;26.012;2023-02-14T11:43:01;101105.66;;;10.16;100.00
19777;BME280;10047;42.490;26.012;2023-02-14T11:45:47;101146.25;;;10.23;97.64
19777;BME280;10047;42.490;26.012;2023-02-14T11:48:23;101145.47;;;10.15;100.00
19777;BME280;10047;42.490;26.012;2023-02-14T11:50:59;101112.16;;;10.44;100.00
19777;BME280;10047;42.490;26.012;2023-02-14T11:53:50;101077.94;;;9.84;100.00
19777;BME280;10047;42.490;26.012;2023-02-14T11:56:19;101138.66;;;10.19;99.62
19777;BME280;10047;42.490;26.012;2023-02-14T11:59:00;101123.94;;;10.56;97.94
19777;BME280;10047;42.490;26.012;2023-02-14T12:01:35;101070.00;;;10.25;94.98
19777;BME280;10047;42.490;26.012;2023-02-14T12:04:12;101087.19;;;9.91;96.33
19777;BME280;10047;42.490;26.012;2023-02-14T12:06:39;101124.34;;;10.03;98.73
19777;BME280;10047;42.490;26.012;2023-02-14T12:12:00;101089.81;;;9.78;97.60
19777;BME280;10047;42.490;26.012;2023-02-14T12:14:32;101088.06;;;9.83;100.00
19777;BME280;10047;42.490;26.012;2023-02-14T12:17:06;101109.91;;;10.15;100.00
19777;BME280;10047;42.490;26.012;2023-02-14T12:19:45;101115.66;;;10.35;100.00
19777;BME280;10047;42.490;26.012;2023-02-14T12:22:18;101049.78;;;10.11;100.00
19777;BME280;10047;42.490;26.012;2023-02-14T12:24:48;101115.28;;;10.73;100.00
19777;BME280;10047;42.490;26.012;2023-02-14T12:27:21;101073.97;;;9.44;100.00
19777;BME280;10047;42.490;26.012;2023-02-14T12:30:17;101126.81;;;10.16;100.00
19777;BME280;10047;42.490;26.012;2023-02-14T12:32:49;101127.13;;;9.65;100.00
19777;BME280;10047;42.490;26.012;2023-02-14T12:38:27;101106.69;;;9.85;100.00
19777;BME280;10047;42.490;26.012;2023-02-14T12:43:48;101073.16;;;9.36;100.00
19777;BME280;10047;42.490;26.012;2023-02-14T12:59:36;101103.47;;;9.60;100.00
19777;BME280;10047;42.490;26.012;2023-02-14T13:05:23;101084.09;;;10.58;100.00
19777;BME280;10047;42.490;26.012;2023-02-14T13:08:07;101084.47;;;10.17;100.00
19777;BME280;10047;42.490;26.012;2023-02-14T13:13:39;101018.75;;;9.72;100.00
19777;BME280;10047;42.490;26.012;2023-02-14T13:18:55;101071.94;;;9.91;100.00
19777;BME280;10047;42.490;26.012;2023-02-14T13:21:28;101072.03;;;9.78;100.00
19777;BME280;10047;42.490;26.012;2023-02-14T13:24:05;101062.69;;;9.86;100.00
19777;BME280;10047;42.490;26.012;2023-02-14T13:26:37;101063.34;;;10.04;100.00
19777;BME280;10047;42.490;26.012;2023-02-14T13:29:18;101018.00;;;9.62;100.00
19777;BME280;10047;42.490;26.012;2023-02-14T13:31:44;101085.50;;;9.89;100.00
19777;BME280;10047;42.490;26.012;2023-02-14T13:36:53;101104.00;;;10.04;100.00
19777;BME280;10047;42.490;26.012;2023-02-14T13:39:44;101097.97;;;10.20;100.00
19777;BME280;10047;42.490;26.012;2023-02-14T13:48:03;101058.38;;;9.91;100.00
19777;BME280;10047;42.490;26.012;2023-02-14T13:50:53;101039.13;;;9.66;100.00
19777;BME280;10047;42.490;26.012;2023-02-14T13:53:38;100967.34;;;9.48;100.00
19777;BME280;10047;42.490;26.012;2023-02-14T13:56:30;101024.66;;;9.75;100.00
19777;BME280;10047;42.490;26.012;2023-02-14T13:59:04;101020.44;;;9.71;100.00
19777;BME280;10047;42.490;26.012;2023-02-14T14:01:40;101029.63;;;9.90;100.00
19777;BME280;10047;42.490;26.012;2023-02-14T14:17:38;100981.19;;;9.01;100.00
19777;BME280;10047;42.490;26.012;2023-02-14T14:25:12;100997.25;;;8.98;100.00
19777;BME280;10047;42.490;26.012;2023-02-14T14:27:44;101043.72;;;9.06;100.00
19777;BME280;10047;42.490;26.012;2023-02-14T14:30:28;100988.97;;;8.60;100.00
19777;BME280;10047;42.490;26.012;2023-02-14T14:33:13;101036.41;;;9.88;100.00
19777;BME280;10047;42.490;26.012;2023-02-14T14:35:38;100987.94;;;10.12;100.00
19777;BME280;10047;42.490;26.012;2023-02-14T14:38:04;101037.38;;;10.66;100.00
19777;BME280;10047;42.490;26.012;2023-02-14T14:40:31;101055.03;;;9.87;100.00
19777;BME280;10047;42.490;26.012;2023-02-14T14:45:55;100988.44;;;9.53;100.00
19777;BME280;10047;42.490;26.012;2023-02-14T14:48:31;101026.94;;;10.11;100.00
19777;BME280;10047;42.490;26.012;2023-02-14T14:50:58;100997.94;;;9.29;100.00
19777;BME280;10047;42.490;26.012;2023-02-14T14:53:27;101003.88;;;9.25;100.00
19777;BME280;10047;42.490;26.012;2023-02-14T14:55:56;101023.25;;;9.35;100.00
19777;BME280;10047;42.490;26.012;2023-02-14T14:58:31;100952.31;;;9.23;100.00
19777;BME280;10047;42.490;26.012;2023-02-14T15:00:57;100962.50;;;9.14;100.00
19777;BME280;10047;42.490;26.012;2023-02-14T15:03:24;100953.84;;;9.42;100.00
19777;BME280;10047;42.490;26.012;2023-02-14T15:06:14;101003.69;;;9.50;100.00
19777;BME280;10047;42.490;26.012;2023-02-14T15:08:42;100996.41;;;8.99;100.00
19777;BME280;10047;42.490;26.012;2023-02-14T15:11:12;100951.81;;;8.63;100.00